Time;durP1;ratioP1;P1;durP2;ratioP2;P2;SDS_P1;SDS_P2;PMS_P1;PMS_P2;Temp;Humidity;BMP_temperature;BMP_pressure;BME280_temperature;BME280_humidity;BME280_pressure;Samples;Min_cycle;Max_cycle;Signal;HPM_P1;HPM_P2
2023/08/07 00:02:31;;;;;;;5.10;1.40;;;20.20;93.80;;;;;;5075982;28;20210;-80
2023/08/07 00:04:59;;;;;;;5.50;1.37;;;20.20;93.90;;;;;;5058539;28;20201;-80
2023/08/07 00:07:26;;;;;;;4.17;1.17;;;20.10;93.70;;;;;;5058978;28;20216;-79
2023/08/07 00:09:53;;;;;;;7.33;1.93;;;20.10;93.80;;;;;;5064001;28;20232;-80
2023/08/07 00:12:21;;;;;;;4.87;1.10;;;20.10;94.00;;;;;;5057623;28;20205;-79
2023/08/07 00:14:50;;;;;;;8.20;1.53;;;20.00;94.10;;;;;;5060125;28;20197;-79
2023/08/07 00:17:18;;;;;;;6.10;1.63;;;19.90;94.40;;;;;;5072115;28;20594;-79
2023/08/07 00:19:47;;;;;;;8.67;1.20;;;19.90;94.50;;;;;;5057633;28;20212;-80
2023/08/07 00:22:15;;;;;;;2.70;1.30;;;19.80;94.60;;;;;;5072762;28;20232;-80
2023/08/07 00:24:42;;;;;;;7.57;1.13;;;19.80;94.80;;;;;;5074775;28;20204;-80
2023/08/07 00:27:10;;;;;;;2.50;1.20;;;19.80;94.80;;;;;;5075396;28;20201;-80
2023/08/07 00:29:38;;;;;;;5.90;1.33;;;19.80;94.80;;;;;;5056241;28;20224;-80
2023/08/07 00:32:06;;;;;;;4.57;1.77;;;19.80;94.80;;;;;;5075627;28;20641;-80
2023/08/07 00:34:34;;;;;;;7.77;1.80;;;19.80;94.80;;;;;;5054754;28;20209;-80
2023/08/07 00:37:01;;;;;;;6.70;1.30;;;19.80;94.70;;;;;;5074509;28;20624;-80
2023/08/07 00:39:28;;;;;;;6.63;1.70;;;19.80;94.70;;;;;;5054900;28;20201;-80
2023/08/07 00:41:56;;;;;;;6.53;1.20;;;19.80;94.60;;;;;;5067600;28;20297;-80
2023/08/07 00:44:24;;;;;;;1.83;1.20;;;19.80;94.50;;;;;;5069692;28;20200;-80
2023/08/07 00:46:51;;;;;;;5.13;1.40;;;19.80;94.50;;;;;;5069499;28;20226;-80
2023/08/07 00:49:19;;;;;;;7.60;1.23;;;19.80;94.50;;;;;;5073045;28;20213;-80
2023/08/07 00:51:47;;;;;;;1.93;0.90;;;19.70;94.60;;;;;;5066846;28;20240;-80
2023/08/07 00:54:19;;;;;;;6.87;1.50;;;19.70;94.50;;;;;;5069811;28;20684;-79
2023/08/07 00:56:46;;;;;;;7.00;1.20;;;19.70;94.50;;;;;;5060647;28;20245;-80
2023/08/07 00:59:15;;;;;;;4.10;1.43;;;19.70;94.60;;;;;;5071230;28;20209;-80
2023/08/07 01:01:45;;;;;;;2.50;0.97;;;19.60;94.70;;;;;;5057992;28;20284;-82
2023/08/07 01:04:12;;;;;;;5.83;1.40;;;19.50;94.80;;;;;;5072103;28;20208;-80
2023/08/07 01:06:40;;;;;;;7.80;1.60;;;19.50;94.90;;;;;;5068866;28;20596;-80
2023/08/07 01:09:07;;;;;;;6.67;1.50;;;19.50;95.00;;;;;;5057200;28;20217;-80
2023/08/07 01:11:39;;;;;;;3.63;1.30;;;19.50;95.00;;;;;;5071900;28;20333;-79
2023/08/07 01:14:25;;;;;;;2.77;1.93;;;19.50;95.00;;;;;;5063470;28;20208;-80
2023/08/07 01:17:06;;;;;;;4.00;1.63;;;19.50;95.10;;;;;;5068713;28;20205;-80
2023/08/07 01:19:36;;;;;;;5.93;1.23;;;19.50;95.00;;;;;;5071059;28;20196;-80
2023/08/07 01:22:13;;;;;;;6.30;1.53;;;19.40;94.90;;;;;;5055180;28;20200;-79
2023/08/07 01:24:51;;;;;;;7.50;2.00;;;19.40;94.90;;;;;;5056608;28;20235;-80
2023/08/07 01:27:18;;;;;;;2.60;1.40;;;19.40;95.00;;;;;;5059538;28;20231;-80
2023/08/07 01:29:59;;;;;;;5.13;1.50;;;19.40;95.00;;;;;;5073354;28;20225;-80
2023/08/07 01:32:39;;;;;;;5.40;1.77;;;19.40;95.10;;;;;;5068956;28;20203;-79
2023/08/07 01:35:08;;;;;;;3.27;1.33;;;19.40;95.20;;;;;;5073738;28;20200;-79
2023/08/07 01:37:39;;;;;;;6.33;1.77;;;19.30;95.10;;;;;;5073438;28;20214;-80
2023/08/07 01:40:10;;;;;;;4.70;1.37;;;19.30;95.10;;;;;;5056116;28;20213;-79
2023/08/07 01:42:41;;;;;;;3.80;1.40;;;19.30;95.20;;;;;;5072785;28;20211;-80
2023/08/07 01:45:08;;;;;;;4.53;1.47;;;19.20;95.20;;;;;;5061112;28;20586;-80
2023/08/07 01:47:36;;;;;;;5.70;1.37;;;19.20;95.30;;;;;;5062044;28;20313;-79
2023/08/07 01:50:04;;;;;;;2.57;1.10;;;19.20;95.40;;;;;;5067700;28;20326;-79
2023/08/07 01:52:32;;;;;;;4.10;1.60;;;19.10;95.50;;;;;;5067188;28;20210;-79
2023/08/07 01:54:59;;;;;;;7.57;1.70;;;19.10;95.60;;;;;;5055904;28;20298;-80
2023/08/07 01:57:27;;;;;;;2.90;1.43;;;19.00;95.70;;;;;;5055511;28;20243;-79
2023/08/07 01:59:54;;;;;;;2.20;1.47;;;18.90;95.90;;;;;;5074827;28;20195;-79
2023/08/07 02:02:22;;;;;;;3.60;1.30;;;18.90;96.20;;;;;;5055708;28;20227;-80
2023/08/07 02:04:50;;;;;;;2.50;1.10;;;18.80;96.30;;;;;;5077422;28;20203;-80
2023/08/07 02:07:17;;;;;;;4.07;1.20;;;18.80;96.50;;;;;;5074669;28;20630;-80
2023/08/07 02:09:45;;;;;;;4.30;1.33;;;18.80;96.60;;;;;;5071639;28;20521;-80
2023/08/07 02:12:13;;;;;;;2.37;1.10;;;18.80;96.70;;;;;;5051687;28;20205;-80
2023/08/07 02:14:40;;;;;;;5.73;1.87;;;18.80;96.70;;;;;;5072852;28;20208;-81
2023/08/07 02:17:07;;;;;;;3.67;1.27;;;18.80;96.60;;;;;;5069159;28;20265;-79
2023/08/07 02:19:35;;;;;;;9.37;1.30;;;18.80;96.50;;;;;;5053439;28;20553;-80
2023/08/07 02:22:03;;;;;;;6.47;1.37;;;18.90;96.40;;;;;;5057706;28;20274;-80
2023/08/07 02:24:30;;;;;;;3.90;1.37;;;18.90;96.20;;;;;;5058374;28;20317;-80
2023/08/07 02:26:58;;;;;;;6.67;1.33;;;18.80;96.00;;;;;;5052560;28;20249;-80
2023/08/07 02:29:27;;;;;;;5.77;1.20;;;18.80;96.00;;;;;;5051667;28;20223;-80
2023/08/07 02:31:56;;;;;;;3.93;1.40;;;18.80;96.20;;;;;;5073842;28;20235;-80
2023/08/07 02:34:23;;;;;;;5.90;1.70;;;18.80;96.20;;;;;;5053411;28;20628;-80
2023/08/07 02:36:51;;;;;;;7.50;1.80;;;18.80;96.20;;;;;;5068591;28;20273;-79
2023/08/07 02:39:19;;;;;;;4.23;1.43;;;18.80;96.20;;;;;;5060890;28;20582;-79
2023/08/07 02:41:46;;;;;;;6.03;1.60;;;18.80;96.30;;;;;;5088707;28;20203;-80
2023/08/07 02:44:14;;;;;;;9.70;2.07;;;18.90;96.30;;;;;;5050230;28;20639;-80
2023/08/07 02:46:41;;;;;;;8.00;1.70;;;18.90;96.40;;;;;;5072074;28;20218;-80
2023/08/07 02:49:09;;;;;;;5.57;1.77;;;18.90;96.30;;;;;;5069329;28;20227;-79
2023/08/07 02:51:37;;;;;;;5.33;1.20;;;19.00;96.20;;;;;;5058871;28;20204;-80
2023/08/07 02:54:04;;;;;;;6.90;1.60;;;18.90;96.10;;;;;;5054942;28;20196;-79
2023/08/07 02:56:32;;;;;;;4.47;1.30;;;18.90;96.00;;;;;;5069638;28;20368;-80
2023/08/07 02:59:01;;;;;;;6.47;1.67;;;18.90;96.10;;;;;;5061270;28;20306;-81
2023/08/07 03:01:29;;;;;;;4.17;1.50;;;18.90;96.20;;;;;;5077678;28;20251;-79
2023/08/07 03:03:57;;;;;;;9.03;2.13;;;18.90;96.20;;;;;;5078052;28;20218;-79
2023/08/07 03:06:24;;;;;;;4.87;1.60;;;18.90;96.10;;;;;;5073942;28;20248;-80
2023/08/07 03:08:52;;;;;;;5.17;1.13;;;18.80;96.00;;;;;;5058195;28;20558;-80
2023/08/07 03:11:22;;;;;;;7.47;2.30;;;18.80;96.10;;;;;;5070372;28;20665;-79
2023/08/07 03:13:54;;;;;;;3.33;1.63;;;18.80;96.20;;;;;;5068392;28;20198;-80
2023/08/07 03:16:21;;;;;;;6.70;2.03;;;18.80;96.20;;;;;;5055327;28;20208;-80
2023/08/07 03:18:49;;;;;;;4.53;1.50;;;18.70;96.20;;;;;;5063710;28;20196;-80
2023/08/07 03:21:16;;;;;;;6.53;1.83;;;18.70;96.20;;;;;;5051788;28;20203;-79
2023/08/07 03:23:48;;;;;;;7.33;2.37;;;18.70;96.30;;;;;;5072402;28;20196;-79
2023/08/07 03:26:17;;;;;;;15.37;2.20;;;18.70;96.30;;;;;;5083455;28;20201;-79
2023/08/07 03:28:48;;;;;;;6.50;2.73;;;18.70;96.30;;;;;;5057365;28;20246;-79
2023/08/07 03:31:16;;;;;;;4.80;1.50;;;18.70;96.30;;;;;;5073921;28;20756;-79
2023/08/07 03:33:45;;;;;;;4.80;1.37;;;18.70;96.40;;;;;;5053105;28;20205;-79
2023/08/07 03:36:13;;;;;;;4.90;1.77;;;18.60;96.40;;;;;;5066656;28;20196;-79
2023/08/07 03:38:41;;;;;;;4.30;2.07;;;18.60;96.40;;;;;;5061045;28;20222;-80
2023/08/07 03:41:09;;;;;;;9.83;2.23;;;18.60;96.70;;;;;;5055036;28;20211;-79
2023/08/07 03:43:39;;;;;;;7.50;2.03;;;18.60;96.60;;;;;;5070610;28;20204;-79
2023/08/07 03:46:07;;;;;;;10.57;2.23;;;18.60;96.60;;;;;;5067271;28;20217;-79
2023/08/07 03:48:34;;;;;;;8.67;2.03;;;18.60;96.70;;;;;;5073651;28;20643;-79
2023/08/07 03:51:04;;;;;;;7.07;2.13;;;18.50;96.90;;;;;;5074736;28;20228;-80
2023/08/07 03:53:38;;;;;;;11.83;2.40;;;18.40;97.00;;;;;;5063822;28;20273;-79
2023/08/07 03:56:06;;;;;;;7.03;1.90;;;18.40;97.10;;;;;;5075520;28;20233;-80
2023/08/07 03:58:35;;;;;;;4.87;1.80;;;18.40;97.30;;;;;;5076074;28;20244;-79
2023/08/07 04:01:03;;;;;;;4.80;1.57;;;18.30;97.50;;;;;;5059028;28;20262;-79
2023/08/07 04:03:33;;;;;;;4.10;1.70;;;18.30;97.50;;;;;;5076185;28;20203;-80
2023/08/07 04:06:01;;;;;;;6.23;1.60;;;18.30;97.40;;;;;;5058225;28;20253;-80
2023/08/07 04:08:34;;;;;;;13.77;2.87;;;18.30;97.10;;;;;;5054079;28;20214;-79
2023/08/07 04:11:04;;;;;;;7.07;1.90;;;18.30;97.00;;;;;;5059136;28;20205;-79
2023/08/07 04:13:33;;;;;;;11.70;1.80;;;18.20;96.90;;;;;;5069781;28;20220;-79
2023/08/07 04:16:04;;;;;;;8.37;2.17;;;18.20;97.00;;;;;;5067679;28;20276;-80
2023/08/07 04:18:33;;;;;;;5.80;2.03;;;18.20;97.10;;;;;;5058627;28;20198;-79
2023/08/07 04:21:02;;;;;;;7.53;2.50;;;18.20;97.20;;;;;;5074311;28;20294;-79
2023/08/07 04:23:31;;;;;;;6.37;1.80;;;18.20;97.30;;;;;;5077608;28;20545;-79
2023/08/07 04:25:59;;;;;;;7.93;2.63;;;18.20;97.40;;;;;;5072517;28;20231;-79
2023/08/07 04:28:30;;;;;;;6.17;2.00;;;18.20;97.40;;;;;;5083038;28;20205;-79
2023/08/07 04:30:57;;;;;;;8.33;2.23;;;18.20;97.40;;;;;;5069368;28;20223;-79
2023/08/07 04:33:25;;;;;;;5.97;1.90;;;18.20;97.50;;;;;;5072082;28;20239;-79
2023/08/07 04:35:56;;;;;;;8.43;1.90;;;18.30;97.60;;;;;;5072604;28;20241;-80
2023/08/07 04:38:23;;;;;;;3.33;1.73;;;18.30;97.50;;;;;;5077436;28;20703;-79
2023/08/07 04:40:51;;;;;;;8.07;2.57;;;18.40;97.50;;;;;;5058110;28;20206;-79
2023/08/07 04:43:22;;;;;;;5.70;1.93;;;18.40;97.50;;;;;;5077451;28;20223;-79
2023/08/07 04:45:50;;;;;;;7.10;2.00;;;18.50;97.50;;;;;;5072604;28;20215;-79
2023/08/07 04:48:22;;;;;;;10.10;2.47;;;18.50;97.40;;;;;;5086450;28;20268;-79
2023/08/07 04:50:49;;;;;;;11.30;2.47;;;18.50;97.40;;;;;;5058754;28;20227;-79
2023/08/07 04:53:17;;;;;;;7.10;2.17;;;18.60;97.30;;;;;;5071474;28;20205;-79
2023/08/07 04:55:44;;;;;;;6.97;1.90;;;18.60;97.30;;;;;;5091607;28;20264;-79
2023/08/07 04:58:12;;;;;;;9.60;2.60;;;18.60;97.30;;;;;;5055225;28;20626;-79
2023/08/07 05:00:39;;;;;;;9.00;2.33;;;18.60;97.30;;;;;;5075671;28;20208;-79
2023/08/07 05:03:06;;;;;;;5.80;2.07;;;18.60;97.30;;;;;;5067357;28;20219;-80
2023/08/07 05:05:34;;;;;;;7.80;2.00;;;18.70;97.40;;;;;;5069565;28;20240;-80
2023/08/07 05:08:01;;;;;;;7.97;2.27;;;18.70;97.50;;;;;;5075483;28;20226;-79
2023/08/07 05:10:32;;;;;;;7.83;2.40;;;18.80;97.60;;;;;;5073422;28;20214;-79
2023/08/07 05:13:02;;;;;;;9.47;2.40;;;18.80;97.50;;;;;;5068837;28;20197;-79
2023/08/07 05:15:31;;;;;;;8.70;2.37;;;18.90;97.50;;;;;;5053452;28;20591;-79
2023/08/07 05:17:58;;;;;;;8.73;2.30;;;19.00;97.60;;;;;;5057486;28;20220;-80
2023/08/07 05:20:26;;;;;;;8.20;2.63;;;19.10;97.60;;;;;;5059284;28;20212;-79
2023/08/07 05:22:53;;;;;;;12.37;3.17;;;19.20;97.60;;;;;;5070216;28;20223;-79
2023/08/07 05:25:24;;;;;;;12.37;3.07;;;19.20;97.60;;;;;;5086109;28;20195;-81
2023/08/07 05:27:51;;;;;;;6.07;2.90;;;19.40;97.60;;;;;;5066962;28;20213;-81
2023/08/07 05:30:18;;;;;;;9.00;2.60;;;19.40;97.60;;;;;;5054488;28;20271;-79
2023/08/07 05:32:46;;;;;;;13.97;4.07;;;19.50;97.60;;;;;;5073345;28;20309;-78
2023/08/07 05:35:13;;;;;;;16.67;3.70;;;19.60;97.60;;;;;;5077547;28;20196;-80
2023/08/07 05:37:41;;;;;;;7.83;3.57;;;19.70;97.60;;;;;;5072774;28;20218;-80
2023/08/07 05:40:11;;;;;;;10.90;3.40;;;19.80;97.60;;;;;;5050713;28;20204;-80
2023/08/07 05:42:41;;;;;;;14.37;3.53;;;19.90;97.60;;;;;;5072980;28;20213;-79
2023/08/07 05:45:10;;;;;;;9.07;3.37;;;20.00;97.60;;;;;;5058059;28;20217;-80
2023/08/07 05:47:38;;;;;;;8.03;3.10;;;20.10;97.60;;;;;;5060925;28;20300;-79
2023/08/07 05:50:06;;;;;;;9.93;3.57;;;20.20;97.50;;;;;;5069001;28;20231;-79
2023/08/07 05:52:33;;;;;;;8.10;2.53;;;20.30;97.50;;;;;;5069208;28;20209;-80
2023/08/07 05:55:01;;;;;;;14.33;3.40;;;20.40;97.50;;;;;;5059885;28;20739;-80
2023/08/07 05:57:31;;;;;;;12.60;3.40;;;20.50;97.40;;;;;;5061376;28;20216;-79
2023/08/07 06:00:03;;;;;;;8.93;2.93;;;20.70;97.40;;;;;;5071131;28;20209;-80
2023/08/07 06:02:37;;;;;;;10.57;3.47;;;20.80;97.30;;;;;;5074931;28;20699;-79
2023/08/07 06:05:05;;;;;;;13.67;3.27;;;21.00;97.10;;;;;;5066641;28;20205;-79
2023/08/07 06:07:36;;;;;;;9.83;3.70;;;21.10;96.80;;;;;;5071733;28;20206;-80
2023/08/07 06:10:03;;;;;;;15.07;3.13;;;21.20;96.60;;;;;;5070838;28;20209;-79
2023/08/07 06:12:31;;;;;;;10.57;2.90;;;21.40;96.40;;;;;;5063649;28;20193;-79
2023/08/07 06:14:59;;;;;;;5.23;2.50;;;21.50;96.20;;;;;;5055716;28;20304;-80
2023/08/07 06:17:27;;;;;;;10.50;3.80;;;21.60;95.90;;;;;;5069727;28;20217;-79
2023/08/07 06:19:55;;;;;;;13.93;3.27;;;21.80;95.70;;;;;;5055974;28;20202;-79
2023/08/07 06:22:22;;;;;;;17.60;3.37;;;21.90;95.60;;;;;;5072051;28;20217;-79
2023/08/07 06:24:50;;;;;;;11.20;3.97;;;22.00;95.40;;;;;;5064041;28;20587;-79
2023/08/07 06:27:17;;;;;;;9.33;2.60;;;22.10;95.10;;;;;;5070156;28;20300;-80
2023/08/07 06:29:44;;;;;;;9.50;2.80;;;22.20;94.70;;;;;;5055148;28;20291;-80
2023/08/07 06:32:11;;;;;;;13.83;3.50;;;22.30;94.30;;;;;;5048770;28;20288;-80
2023/08/07 06:34:39;;;;;;;12.07;2.40;;;22.40;93.70;;;;;;5072556;28;20607;-79
2023/08/07 06:37:09;;;;;;;10.17;2.60;;;22.50;93.40;;;;;;5086865;28;20210;-80
2023/08/07 06:39:36;;;;;;;7.93;2.60;;;22.60;93.00;;;;;;5070391;28;20589;-79
2023/08/07 06:42:04;;;;;;;7.37;2.43;;;22.70;92.60;;;;;;5070452;28;20648;-80
2023/08/07 06:44:34;;;;;;;5.33;2.40;;;22.80;92.20;;;;;;5070476;28;20233;-80
2023/08/07 06:47:02;;;;;;;8.97;3.07;;;22.90;91.70;;;;;;5069194;28;20205;-80
2023/08/07 06:49:36;;;;;;;8.30;2.63;;;23.00;91.50;;;;;;5054157;28;20218;-79
2023/08/07 06:52:04;;;;;;;6.80;2.77;;;23.10;91.30;;;;;;5070551;28;20224;-80
2023/08/07 06:54:31;;;;;;;8.80;3.73;;;23.20;90.90;;;;;;5055429;28;20209;-79
2023/08/07 06:56:59;;;;;;;7.70;2.80;;;23.40;90.50;;;;;;5055187;28;20237;-80
2023/08/07 06:59:26;;;;;;;2.77;2.07;;;23.50;90.00;;;;;;5068049;28;20197;-79
2023/08/07 07:01:53;;;;;;;5.30;2.37;;;23.60;88.80;;;;;;5080268;28;20194;-79
2023/08/07 07:04:21;;;;;;;9.33;2.47;;;23.70;87.80;;;;;;5074073;28;20205;-79
2023/08/07 07:06:48;;;;;;;6.00;2.57;;;23.80;87.20;;;;;;5071779;28;20283;-79
2023/08/07 07:09:16;;;;;;;7.10;2.90;;;23.90;86.80;;;;;;5069976;28;20324;-79
2023/08/07 07:11:43;;;;;;;7.13;2.97;;;23.90;85.90;;;;;;5059988;28;20205;-79
2023/08/07 07:14:11;;;;;;;7.90;3.10;;;24.10;85.10;;;;;;5067163;28;20214;-80
2023/08/07 07:16:38;;;;;;;6.33;2.37;;;24.20;84.30;;;;;;5067776;28;20197;-80
2023/08/07 07:19:09;;;;;;;6.50;2.43;;;24.30;83.30;;;;;;5084185;28;20217;-79
2023/08/07 07:21:36;;;;;;;5.10;2.20;;;24.40;82.40;;;;;;5069442;28;20622;-80
2023/08/07 07:24:04;;;;;;;5.20;2.00;;;24.50;81.60;;;;;;5053760;28;20193;-80
2023/08/07 07:26:32;;;;;;;6.13;2.27;;;24.60;81.10;;;;;;5064265;28;20215;-80
2023/08/07 07:29:00;;;;;;;9.00;2.90;;;24.70;80.60;;;;;;5069005;28;20216;-79
2023/08/07 07:31:32;;;;;;;3.90;2.10;;;24.80;79.90;;;;;;5048953;28;20235;-79
2023/08/07 07:34:00;;;;;;;8.07;2.33;;;24.80;79.20;;;;;;5071153;28;20205;-80
2023/08/07 07:36:27;;;;;;;8.67;2.40;;;24.90;79.40;;;;;;5051289;28;20626;-80
2023/08/07 07:38:55;;;;;;;5.43;2.07;;;25.00;78.60;;;;;;5072282;28;20193;-79
2023/08/07 07:41:23;;;;;;;5.40;1.90;;;25.10;78.00;;;;;;5087656;28;20199;-79
2023/08/07 07:43:51;;;;;;;4.50;2.10;;;25.20;77.50;;;;;;5048332;28;20297;-80
2023/08/07 07:46:18;;;;;;;3.73;2.13;;;25.30;76.00;;;;;;5070890;28;20232;-80
2023/08/07 07:48:46;;;;;;;5.90;1.80;;;25.40;74.00;;;;;;5073865;28;20212;-79
2023/08/07 07:51:13;;;;;;;6.70;1.70;;;25.40;73.70;;;;;;5078937;28;20226;-79
2023/08/07 07:53:40;;;;;;;4.93;2.00;;;25.50;73.30;;;;;;5064733;28;20261;-78
2023/08/07 07:56:07;;;;;;;4.90;2.73;;;25.60;72.30;;;;;;5071556;28;20320;-80
2023/08/07 07:58:35;;;;;;;3.57;1.70;;;25.70;71.50;;;;;;5051115;28;20255;-79
2023/08/07 08:01:02;;;;;;;7.63;2.10;;;25.70;70.30;;;;;;5069193;28;20333;-80
2023/08/07 08:03:29;;;;;;;4.57;1.83;;;25.80;70.40;;;;;;5063949;28;20224;-78
2023/08/07 08:06:00;;;;;;;6.07;2.20;;;25.90;69.80;;;;;;5069276;28;20261;-79
2023/08/07 08:08:27;;;;;;;3.77;1.90;;;25.90;68.40;;;;;;5084369;28;20209;-77
2023/08/07 08:10:55;;;;;;;5.17;1.90;;;25.90;67.70;;;;;;5073623;28;20579;-79
2023/08/07 08:13:25;;;;;;;4.00;1.50;;;25.90;68.10;;;;;;5068939;28;20208;-80
2023/08/07 08:15:52;;;;;;;10.03;2.27;;;25.90;68.70;;;;;;5055189;28;20622;-79
2023/08/07 08:18:20;;;;;;;2.73;1.47;;;26.10;68.60;;;;;;5069295;28;20678;-80
2023/08/07 08:20:47;;;;;;;2.87;1.53;;;26.20;67.80;;;;;;5050158;28;20207;-79
2023/08/07 08:23:14;;;;;;;5.10;2.30;;;26.30;67.70;;;;;;5055122;28;20201;-79
2023/08/07 08:25:42;;;;;;;3.90;1.40;;;26.50;67.10;;;;;;5063239;28;20212;-79
2023/08/07 08:28:09;;;;;;;6.10;1.60;;;26.60;66.50;;;;;;5073823;28;20206;-80
2023/08/07 08:30:36;;;;;;;1.73;1.37;;;26.70;65.80;;;;;;5067453;28;20227;-80
2023/08/07 08:33:05;;;;;;;4.40;1.30;;;26.90;64.90;;;;;;5084371;28;20201;-79
2023/08/07 08:35:32;;;;;;;3.27;1.23;;;27.00;63.90;;;;;;5077905;28;20216;-79
2023/08/07 08:38:00;;;;;;;5.90;1.27;;;27.20;62.50;;;;;;5078083;28;20220;-80
2023/08/07 08:40:27;;;;;;;5.60;1.20;;;27.30;62.10;;;;;;5056471;28;20209;-79
2023/08/07 08:42:57;;;;;;;3.13;1.00;;;27.50;62.50;;;;;;5072458;28;20213;-79
2023/08/07 08:45:26;;;;;;;2.93;1.03;;;27.50;61.80;;;;;;5062284;28;20267;-79
2023/08/07 08:48:03;;;;;;;1.23;1.10;;;27.60;61.30;;;;;;5063766;28;20621;-79
2023/08/07 08:50:32;;;;;;;3.30;1.50;;;27.80;60.30;;;;;;5070193;28;20648;-80
2023/08/07 08:53:02;;;;;;;5.00;1.63;;;27.70;60.40;;;;;;5074071;28;20282;-80
2023/08/07 08:55:31;;;;;;;4.50;1.83;;;27.60;60.90;;;;;;5072774;28;20578;-79
2023/08/07 08:58:00;;;;;;;2.70;1.30;;;27.60;61.10;;;;;;5059327;28;20232;-80
2023/08/07 09:00:30;;;;;;;2.33;1.50;;;27.50;61.00;;;;;;5075824;28;20206;-79
2023/08/07 09:02:58;;;;;;;1.97;0.87;;;27.40;61.10;;;;;;5080679;28;20212;-79
2023/08/07 09:05:27;;;;;;;2.97;1.00;;;27.30;61.60;;;;;;5073469;28;20236;-80
2023/08/07 09:07:58;;;;;;;4.53;0.93;;;27.30;61.70;;;;;;5089819;28;20205;-79
2023/08/07 09:10:26;;;;;;;2.50;0.90;;;27.50;61.00;;;;;;5055113;28;20311;-79
2023/08/07 09:13:00;;;;;;;4.53;1.13;;;27.70;59.10;;;;;;5055702;28;20209;-80
2023/08/07 09:15:30;;;;;;;1.80;0.90;;;27.70;59.20;;;;;;5066539;28;20305;-80
2023/08/07 09:17:59;;;;;;;4.40;0.90;;;27.70;58.80;;;;;;5085071;28;20271;-79
2023/08/07 09:20:26;;;;;;;1.80;0.80;;;27.70;58.50;;;;;;5062175;28;20213;-80
2023/08/07 09:22:53;;;;;;;3.67;1.00;;;27.80;57.80;;;;;;5061966;28;20683;-80
2023/08/07 09:25:29;;;;;;;6.07;1.17;;;27.80;58.20;;;;;;5076551;28;20213;-80
2023/08/07 09:28:05;;;;;;;4.10;0.90;;;28.00;58.60;;;;;;5074383;28;20270;-79
2023/08/07 09:30:36;;;;;;;1.37;0.80;;;28.20;57.90;;;;;;5068161;28;20255;-79
2023/08/07 09:33:08;;;;;;;3.43;0.90;;;28.40;57.00;;;;;;5073785;28;20285;-78
2023/08/07 09:35:35;;;;;;;2.23;1.03;;;28.40;56.50;;;;;;5068977;28;20201;-80
2023/08/07 09:38:03;;;;;;;1.33;0.67;;;28.40;56.40;;;;;;5071997;28;20630;-80
2023/08/07 09:40:30;;;;;;;5.43;0.93;;;28.40;56.70;;;;;;5071992;28;20205;-81
2023/08/07 09:43:00;;;;;;;2.70;1.33;;;28.60;55.60;;;;;;5070832;28;20201;-79
2023/08/07 09:45:30;;;;;;;3.13;1.07;;;28.70;54.00;;;;;;5068745;28;20296;-80
2023/08/07 09:48:01;;;;;;;3.73;0.93;;;28.70;54.20;;;;;;5058833;28;20543;-79
2023/08/07 09:50:31;;;;;;;1.97;0.90;;;28.70;53.60;;;;;;5089712;28;20229;-79
2023/08/07 09:52:59;;;;;;;2.03;1.00;;;28.70;52.80;;;;;;5055704;28;20257;-81
2023/08/07 09:55:31;;;;;;;3.83;1.00;;;28.70;52.70;;;;;;5059607;28;20218;-79
2023/08/07 09:58:00;;;;;;;4.40;1.27;;;28.60;52.40;;;;;;5074666;28;20226;-80
2023/08/07 10:00:35;;;;;;;5.97;1.03;;;28.70;53.60;;;;;;5062182;28;20205;-79
2023/08/07 10:03:04;;;;;;;1.43;0.80;;;28.90;52.70;;;;;;5058999;28;20210;-79
2023/08/07 10:05:34;;;;;;;5.37;1.20;;;28.90;52.40;;;;;;5062288;28;20296;-79
2023/08/07 10:08:02;;;;;;;3.53;1.13;;;29.00;52.80;;;;;;5074803;28;20255;-79
2023/08/07 10:10:34;;;;;;;3.93;0.97;;;29.10;51.80;;;;;;5074492;28;20229;-80
2023/08/07 10:13:01;;;;;;;1.77;0.83;;;29.20;52.10;;;;;;5062713;28;20240;-79
2023/08/07 10:15:34;;;;;;;2.43;0.90;;;29.30;51.00;;;;;;5070732;28;20650;-80
2023/08/07 10:18:02;;;;;;;2.47;0.80;;;29.30;50.40;;;;;;5067889;28;20284;-82
2023/08/07 10:20:29;;;;;;;1.23;0.80;;;29.30;50.50;;;;;;5064727;28;20205;-80
2023/08/07 10:23:08;;;;;;;1.67;1.10;;;29.30;47.70;;;;;;5058955;28;20228;-81
2023/08/07 10:25:40;;;;;;;1.30;0.60;;;29.30;48.00;;;;;;5074185;28;20700;-80
2023/08/07 10:28:12;;;;;;;0.93;0.70;;;29.20;47.80;;;;;;5069424;28;20254;-80
2023/08/07 10:30:42;;;;;;;1.33;0.60;;;29.10;45.60;;;;;;5074839;28;20330;-81
2023/08/07 10:33:13;;;;;;;1.00;0.70;;;29.30;46.60;;;;;;5055728;28;20201;-80
2023/08/07 10:35:48;;;;;;;1.40;0.60;;;29.40;44.90;;;;;;5064659;28;20217;-81
2023/08/07 10:38:19;;;;;;;1.03;0.70;;;29.60;44.80;;;;;;5059019;28;20688;-79
2023/08/07 10:41:02;;;;;;;1.23;0.53;;;29.70;43.60;;;;;;5075190;28;20581;-80
2023/08/07 10:43:36;;;;;;;0.80;0.60;;;29.80;43.20;;;;;;5072657;28;20620;-80
2023/08/07 10:46:11;;;;;;;2.17;0.60;;;29.90;42.00;;;;;;5055096;28;20280;-79
2023/08/07 10:48:54;;;;;;;0.97;0.80;;;30.00;41.70;;;;;;5087310;28;20583;-81
2023/08/07 10:51:27;;;;;;;2.57;0.70;;;30.00;43.10;;;;;;5075734;28;20212;-81
2023/08/07 10:53:56;;;;;;;2.20;0.70;;;30.10;43.10;;;;;;5074899;28;20202;-80
2023/08/07 10:56:37;;;;;;;0.40;0.40;;;30.20;40.10;;;;;;5069413;28;20237;-80
2023/08/07 10:59:12;;;;;;;7.93;0.87;;;30.20;41.40;;;;;;5070011;28;20193;-82
2023/08/07 11:01:50;;;;;;;1.90;0.53;;;30.30;41.40;;;;;;5071943;28;20267;-80
2023/08/07 11:04:24;;;;;;;1.63;0.53;;;30.40;41.80;;;;;;5065576;28;20292;-80
2023/08/07 11:06:52;;;;;;;1.77;0.50;;;30.50;41.10;;;;;;5071106;28;20235;-80
2023/08/07 11:09:26;;;;;;;0.47;0.47;;;30.60;41.20;;;;;;5066052;28;20208;-80
2023/08/07 11:11:57;;;;;;;0.93;0.50;;;30.70;40.40;;;;;;5061928;28;20274;-81
2023/08/07 11:14:26;;;;;;;0.60;0.37;;;30.80;39.90;;;;;;5071475;28;20263;-80
2023/08/07 11:16:57;;;;;;;0.63;0.57;;;30.90;38.60;;;;;;5081614;28;20621;-82
2023/08/07 11:19:25;;;;;;;0.93;0.80;;;30.80;38.80;;;;;;5050254;28;20528;-80
2023/08/07 11:21:54;;;;;;;1.63;0.80;;;30.70;39.10;;;;;;5074358;28;20201;-81
2023/08/07 11:24:27;;;;;;;0.40;0.40;;;30.70;39.10;;;;;;5056996;28;20209;-80
2023/08/07 11:26:58;;;;;;;0.50;0.50;;;30.60;37.70;;;;;;5065580;28;20239;-80
2023/08/07 11:29:30;;;;;;;0.40;0.40;;;30.50;36.90;;;;;;5066305;28;20254;-80
2023/08/07 11:32:00;;;;;;;0.40;0.40;;;30.40;37.10;;;;;;5054857;28;20283;-80
2023/08/07 11:34:28;;;;;;;0.40;0.40;;;30.30;37.20;;;;;;5081248;28;20211;-80
2023/08/07 11:36:57;;;;;;;0.97;0.53;;;30.40;37.20;;;;;;5058406;28;20198;-80
2023/08/07 11:39:26;;;;;;;0.40;0.37;;;30.40;37.60;;;;;;5058341;28;20205;-82
2023/08/07 11:41:53;;;;;;;0.60;0.60;;;30.60;37.60;;;;;;5071467;28;20209;-81
2023/08/07 11:44:23;;;;;;;0.30;0.30;;;30.70;35.30;;;;;;5055626;28;20279;-83
2023/08/07 11:46:51;;;;;;;0.70;0.50;;;30.60;34.50;;;;;;5069229;28;20212;-81
2023/08/07 11:49:19;;;;;;;0.97;0.50;;;30.50;36.00;;;;;;5065922;28;20255;-81
2023/08/07 11:51:50;;;;;;;0.90;0.53;;;30.50;36.60;;;;;;5054915;28;20321;-81
2023/08/07 11:54:18;;;;;;;1.60;0.40;;;30.60;36.90;;;;;;5066909;28;20193;-80
2023/08/07 11:56:56;;;;;;;2.20;0.60;;;30.60;36.40;;;;;;5084086;28;20230;-80
2023/08/07 11:59:25;;;;;;;0.87;0.57;;;30.60;37.40;;;;;;5057838;28;20212;-82
2023/08/07 12:01:52;;;;;;;2.33;0.63;;;30.80;36.50;;;;;;5066518;28;20209;-80
2023/08/07 12:04:20;;;;;;;0.97;0.40;;;30.80;35.90;;;;;;5071792;28;20305;-82
2023/08/07 12:06:56;;;;;;;0.87;0.50;;;30.80;35.70;;;;;;5074377;28;20209;-81
2023/08/07 12:09:28;;;;;;;3.10;0.60;;;30.90;36.70;;;;;;5073323;28;20205;-81
2023/08/07 12:11:58;;;;;;;1.07;0.40;;;30.90;37.00;;;;;;5045805;28;20565;-80
2023/08/07 12:14:30;;;;;;;2.50;0.50;;;31.00;37.10;;;;;;5048794;28;20233;-80
2023/08/07 12:17:00;;;;;;;0.40;0.40;;;31.10;34.50;;;;;;5068516;28;20633;-80
2023/08/07 12:19:53;;;;;;;0.40;0.40;;;31.10;35.30;;;;;;5068863;28;20206;-80
2023/08/07 12:22:22;;;;;;;0.60;0.47;;;31.10;35.90;;;;;;5069489;28;20594;-81
2023/08/07 12:24:50;;;;;;;1.90;0.80;;;31.20;34.70;;;;;;5065382;28;20202;-78
2023/08/07 12:27:19;;;;;;;0.73;0.67;;;31.10;33.90;;;;;;5070369;28;20209;-80
2023/08/07 12:29:46;;;;;;;0.97;0.50;;;31.00;34.80;;;;;;5061370;28;20205;-80
2023/08/07 12:32:14;;;;;;;0.67;0.60;;;31.00;34.50;;;;;;5076030;28;20279;-81
2023/08/07 12:34:41;;;;;;;0.80;0.50;;;31.10;35.00;;;;;;5054812;28;20206;-81
2023/08/07 12:37:11;;;;;;;0.63;0.63;;;31.20;34.80;;;;;;5087465;28;20202;-80
2023/08/07 12:39:39;;;;;;;2.50;0.67;;;31.20;34.40;;;;;;5080444;28;20225;-83
2023/08/07 12:42:09;;;;;;;0.40;0.40;;;31.30;35.20;;;;;;5059695;28;20201;-80
2023/08/07 12:44:39;;;;;;;1.13;0.60;;;31.30;34.60;;;;;;5068834;28;20641;-79
2023/08/07 12:47:06;;;;;;;1.50;0.50;;;31.30;33.10;;;;;;5086769;28;20201;-83
2023/08/07 12:49:34;;;;;;;0.93;0.77;;;31.30;33.30;;;;;;5059525;28;20209;-81
2023/08/07 12:52:04;;;;;;;1.43;0.60;;;31.20;32.90;;;;;;5055167;28;20279;-82
2023/08/07 12:54:34;;;;;;;0.40;0.40;;;31.10;32.60;;;;;;5067459;28;20229;-81
2023/08/07 12:57:01;;;;;;;8.57;0.90;;;31.00;33.20;;;;;;5080583;28;20234;-80